createdAt,value
2022-08-05T00:00:18.918Z,101395.63
2022-08-05T00:02:51.089Z,101399.81
2022-08-05T00:06:03.253Z,101409.25
2022-08-05T00:08:34.157Z,101419.69
2022-08-05T00:11:00.923Z,101430.19
2022-08-05T00:13:39.620Z,101422.47
2022-08-05T00:16:12.656Z,101427.94
2022-08-05T00:18:44.512Z,101420.88
2022-08-05T00:21:14.711Z,101425.06
2022-08-05T00:24:05.063Z,101430.94
2022-08-05T00:26:33.837Z,101433.00
2022-08-05T00:29:01.069Z,101431.38
2022-08-05T00:31:52.943Z,101417.97
2022-08-05T00:34:56.930Z,101433.84
2022-08-05T00:37:09.902Z,101411.41
2022-08-05T00:39:58.765Z,101414.09
2022-08-05T00:42:40.031Z,101406.53
2022-08-05T00:45:11.739Z,101411.47
2022-08-05T00:47:57.002Z,101380.69
2022-08-05T00:50:25.841Z,101387.50
2022-08-05T00:52:55.046Z,101390.16
2022-08-05T00:55:34.047Z,101397.06
2022-08-05T00:58:14.201Z,101401.25
2022-08-05T01:00:42.043Z,101398.78
2022-08-05T01:03:12.688Z,101404.25
2022-08-05T01:05:54.582Z,101409.06
2022-08-05T01:08:41.598Z,101395.84
2022-08-05T01:11:21.793Z,101418.78
2022-08-05T01:14:08.627Z,101434.06
2022-08-05T01:17:07.631Z,101435.00
2022-08-05T01:20:02.000Z,101442.16
2022-08-05T01:23:00.605Z,101455.13
2022-08-05T01:26:26.224Z,101448.28
2022-08-05T01:29:13.745Z,101459.38
2022-08-05T01:31:58.894Z,101454.81
2022-08-05T01:34:35.898Z,101458.44
2022-08-05T01:37:24.575Z,101442.38
2022-08-05T01:39:59.215Z,101442.91
2022-08-05T01:42:31.399Z,101434.25
2022-08-05T01:45:02.438Z,101439.38
2022-08-05T01:47:38.808Z,101436.25
2022-08-05T01:50:18.734Z,101442.75
2022-08-05T01:53:05.377Z,101433.41
2022-08-05T01:55:37.450Z,101432.44
2022-08-05T01:58:15.754Z,101452.22
2022-08-05T02:00:50.952Z,101437.41
2022-08-05T02:03:41.029Z,101454.34
2022-08-05T02:06:33.407Z,101447.56
2022-08-05T02:08:59.267Z,101442.72
2022-08-05T02:11:37.567Z,101455.16
2022-08-05T02:14:17.439Z,101440.72
2022-08-05T02:16:52.168Z,101450.53
2022-08-05T02:19:46.960Z,101446.13
2022-08-05T02:22:31.652Z,101434.97
2022-08-05T02:25:08.670Z,101448.75
2022-08-05T02:27:58.378Z,101450.56
2022-08-05T02:30:38.231Z,101440.91
2022-08-05T02:33:24.325Z,101446.84
2022-08-05T02:35:59.094Z,101452.81
2022-08-05T02:38:35.080Z,101451.81
2022-08-05T02:41:28.370Z,101471.81
2022-08-05T02:44:06.054Z,101475.94
2022-08-05T02:46:53.102Z,101439.22
2022-08-05T02:49:37.079Z,101460.94
2022-08-05T02:52:30.077Z,101456.31
2022-08-05T02:55:05.369Z,101468.81
2022-08-05T02:58:10.567Z,101456.00
2022-08-05T03:00:23.085Z,101465.22
2022-08-05T03:02:54.788Z,101435.41
2022-08-05T03:06:54.300Z,101429.53
2022-08-05T03:08:12.345Z,101404.00
2022-08-05T03:11:00.927Z,101422.91
2022-08-05T03:13:51.987Z,101425.41
2022-08-05T03:16:21.212Z,101426.66
2022-08-05T03:18:49.419Z,101420.63
2022-08-05T03:21:16.770Z,101411.25
2022-08-05T03:23:45.607Z,101423.06
2022-08-05T03:26:31.059Z,101310.69
2022-08-05T03:29:01.621Z,101412.25
2022-08-05T03:31:55.598Z,101394.44
2022-08-05T03:34:18.075Z,101410.88
2022-08-05T03:36:45.929Z,101420.44
2022-08-05T03:39:20.080Z,101414.16
2022-08-05T03:41:56.287Z,101425.34
2022-08-05T03:44:25.330Z,101409.38
2022-08-05T03:46:56.513Z,101396.03
2022-08-05T03:49:24.220Z,101403.63
2022-08-05T03:52:50.587Z,101395.47
2022-08-05T03:56:05.556Z,101386.03
2022-08-05T03:57:53.171Z,101385.88
2022-08-05T04:00:26.633Z,101382.44
2022-08-05T04:02:59.218Z,101382.75
2022-08-05T04:05:33.394Z,101380.94
2022-08-05T04:08:14.560Z,101378.50
2022-08-05T04:10:45.243Z,101381.00
2022-08-05T04:13:13.326Z,101399.06
2022-08-05T04:16:03.373Z,101416.53
2022-08-05T04:18:30.125Z,101424.38
2022-08-05T04:20:59.116Z,101391.69
2022-08-05T04:24:05.977Z,101429.56
2022-08-05T04:26:17.448Z,101436.50
2022-08-05T04:28:51.108Z,101436.41
2022-08-05T04:31:20.401Z,101447.41
2022-08-05T04:34:19.158Z,101472.84
2022-08-05T04:36:46.590Z,101456.28
2022-08-05T04:39:21.700Z,101456.38
2022-08-05T04:41:51.006Z,101423.03
2022-08-05T04:44:29.020Z,101415.78
2022-08-05T04:47:09.789Z,101403.16
2022-08-05T04:50:01.381Z,101435.94
2022-08-05T04:52:27.362Z,101448.34
2022-08-05T04:54:57.298Z,101439.00
2022-08-05T04:57:28.667Z,101430.53
2022-08-05T04:59:58.523Z,101440.59
2022-08-05T05:02:41.277Z,101450.50
2022-08-05T05:05:26.642Z,101436.97
2022-08-05T05:08:14.465Z,101436.97
2022-08-05T05:10:59.087Z,101453.00
2022-08-05T05:13:32.289Z,101434.69
2022-08-05T05:16:10.944Z,101449.22
2022-08-05T05:18:38.922Z,101448.69
2022-08-05T05:21:06.406Z,101433.81
2022-08-05T05:24:02.044Z,101428.38
2022-08-05T05:26:28.753Z,101434.13
2022-08-05T05:29:00.700Z,101412.50
2022-08-05T05:31:35.998Z,101428.38
2022-08-05T05:34:02.167Z,101411.47
2022-08-05T05:36:31.993Z,101434.00
2022-08-05T05:38:59.427Z,101441.34
2022-08-05T05:41:40.425Z,101453.88
2022-08-05T05:44:34.469Z,101423.91
2022-08-05T05:46:58.056Z,101394.09
2022-08-05T05:49:26.165Z,101444.72
2022-08-05T05:51:54.926Z,101455.69
2022-08-05T05:54:22.268Z,101454.75
2022-08-05T05:57:13.515Z,101456.38
2022-08-05T05:59:41.348Z,101494.06
2022-08-05T06:02:10.707Z,101481.97
2022-08-05T06:04:38.153Z,101476.50
2022-08-05T06:07:05.256Z,101482.00
2022-08-05T06:09:50.231Z,101508.91
2022-08-05T06:12:19.884Z,101499.28
2022-08-05T06:14:48.889Z,101479.09
2022-08-05T06:17:22.419Z,101491.69
2022-08-05T06:19:57.103Z,101508.69
2022-08-05T06:22:35.093Z,101519.81
2022-08-05T06:25:25.028Z,101541.25
2022-08-05T06:28:11.136Z,101522.91
2022-08-05T06:30:38.769Z,101542.03
2022-08-05T06:33:09.981Z,101542.03
2022-08-05T06:36:06.812Z,101538.03
2022-08-05T06:38:35.811Z,101528.38
2022-08-05T06:41:07.657Z,101514.22
2022-08-05T06:43:58.163Z,101523.53
2022-08-05T06:46:23.037Z,101529.25
2022-08-05T06:48:59.279Z,101538.47
2022-08-05T06:51:31.034Z,101521.25
2022-08-05T06:54:04.273Z,101551.84
2022-08-05T06:56:34.397Z,101543.09
2022-08-05T06:59:09.639Z,101530.19
2022-08-05T07:01:40.769Z,101534.44
2022-08-05T07:04:09.795Z,101543.75
2022-08-05T07:06:37.205Z,101561.75
2022-08-05T07:09:05.022Z,101556.69
2022-08-05T07:11:37.053Z,101552.63
2022-08-05T07:14:30.099Z,101553.56
2022-08-05T07:18:01.835Z,101550.50
2022-08-05T07:22:39.690Z,101569.91
2022-08-05T07:25:22.493Z,101576.03
2022-08-05T07:28:03.767Z,101583.19
2022-08-05T07:30:38.840Z,101566.72
2022-08-05T07:33:15.543Z,101559.91
2022-08-05T07:36:04.265Z,101566.72
2022-08-05T07:38:43.307Z,101584.28
2022-08-05T07:42:13.615Z,101583.00
2022-08-05T07:44:14.033Z,101581.81
2022-08-05T07:46:49.749Z,101581.88
2022-08-05T07:49:19.006Z,101546.38
2022-08-05T07:51:53.734Z,101580.88
2022-08-05T07:54:30.749Z,101587.03
2022-08-05T07:57:23.666Z,101576.34
2022-08-05T07:59:51.807Z,101577.56
2022-08-05T08:02:26.677Z,101563.50
2022-08-05T08:04:59.440Z,101553.28
2022-08-05T08:07:29.218Z,101541.03
2022-08-05T08:10:07.421Z,101553.16
2022-08-05T08:12:49.236Z,101563.09
2022-08-05T08:15:17.291Z,101557.56
2022-08-05T08:17:49.914Z,101560.06
2022-08-05T08:21:00.547Z,101551.31
2022-08-05T08:23:11.814Z,101553.03
2022-08-05T08:26:02.892Z,101557.81
2022-08-05T08:28:35.600Z,101555.72
2022-08-05T08:31:09.555Z,101567.25
2022-08-05T08:33:51.717Z,101554.84
2022-08-05T08:36:39.284Z,101536.88
2022-08-05T08:39:14.962Z,101559.75
2022-08-05T08:41:51.361Z,101531.13
2022-08-05T08:45:19.799Z,101545.44
2022-08-05T08:48:05.860Z,101562.13
2022-08-05T08:50:30.873Z,101540.25
2022-08-05T08:53:12.011Z,101542.41
2022-08-05T08:56:04.560Z,101553.28
2022-08-05T08:58:37.198Z,101541.34
2022-08-05T09:01:18.283Z,101557.97
2022-08-05T09:03:54.517Z,101566.19
2022-08-05T09:06:27.965Z,101569.03
2022-08-05T09:09:01.129Z,101580.44
2022-08-05T09:11:52.037Z,101558.97
2022-08-05T09:14:56.854Z,101558.53
2022-08-05T09:17:40.052Z,101568.16
2022-08-05T09:20:02.468Z,101573.84
2022-08-05T09:23:19.431Z,101599.53
2022-08-05T09:26:01.997Z,101611.84
2022-08-05T09:28:34.944Z,101605.41
2022-08-05T09:31:43.863Z,101591.34
2022-08-05T09:34:10.345Z,101603.66
2022-08-05T09:36:56.100Z,101599.69
2022-08-05T09:39:45.863Z,101600.78
2022-08-05T09:42:24.557Z,101609.59
2022-08-05T09:45:03.304Z,101620.47
2022-08-05T09:47:55.640Z,101633.31
2022-08-05T09:50:44.510Z,101629.09
2022-08-05T09:53:23.185Z,101636.78
2022-08-05T09:56:04.020Z,101651.41
2022-08-05T09:58:32.912Z,101650.44
2022-08-05T10:01:15.437Z,101639.84
2022-08-05T10:04:17.541Z,101641.03
2022-08-05T10:06:59.639Z,101619.03
2022-08-05T10:09:29.829Z,101634.81
2022-08-05T10:12:18.797Z,101610.41
2022-08-05T10:15:21.795Z,101598.00
2022-08-05T10:18:17.426Z,101604.94
2022-08-05T10:20:48.757Z,101604.06
2022-08-05T10:23:55.550Z,101590.63
2022-08-05T10:26:14.986Z,101586.25
2022-08-05T10:28:46.415Z,101581.94
2022-08-05T10:32:47.177Z,101570.72
2022-08-05T10:34:03.957Z,101561.91
2022-08-05T10:36:38.273Z,101576.22
2022-08-05T10:40:03.097Z,101585.19
2022-08-05T10:42:33.413Z,101590.19
2022-08-05T10:45:20.932Z,101572.59
2022-08-05T10:48:29.865Z,101574.31
2022-08-05T10:50:59.658Z,101576.53
2022-08-05T10:53:58.583Z,101570.69
2022-08-05T10:56:55.983Z,101566.34
2022-08-05T11:00:03.437Z,101576.31
2022-08-05T11:02:37.948Z,101589.44
2022-08-05T11:05:10.641Z,101587.22
2022-08-05T11:08:01.733Z,101571.56
2022-08-05T11:11:00.042Z,101584.28
2022-08-05T11:13:54.956Z,101583.84
2022-08-05T11:16:33.736Z,101582.91
2022-08-05T11:20:11.121Z,101603.19
2022-08-05T11:22:49.800Z,101609.19
2022-08-05T11:26:06.222Z,101610.44
2022-08-05T11:28:26.857Z,101616.53
2022-08-05T11:31:06.585Z,101615.69
2022-08-05T11:33:52.309Z,101629.59
2022-08-05T11:36:42.032Z,101619.38
2022-08-05T11:39:14.676Z,101616.63
2022-08-05T11:42:01.092Z,101618.66
2022-08-05T11:44:53.891Z,101623.69
2022-08-05T11:47:48.777Z,101630.16
2022-08-05T11:50:14.304Z,101637.75
2022-08-05T11:52:44.018Z,101632.72
2022-08-05T11:55:16.467Z,101633.50
2022-08-05T11:58:10.061Z,101617.09
2022-08-05T12:00:38.446Z,101644.69
2022-08-05T12:03:29.651Z,101632.69
2022-08-05T12:06:03.260Z,101637.22
2022-08-05T12:08:33.797Z,101639.97
2022-08-05T12:11:05.658Z,101634.00
2022-08-05T12:13:48.770Z,101644.59
2022-08-05T12:16:25.705Z,101650.41
2022-08-05T12:18:55.777Z,101658.25
2022-08-05T12:21:39.119Z,101669.25
2022-08-05T12:24:11.252Z,101681.28
2022-08-05T12:26:46.517Z,101676.16
2022-08-05T12:29:22.998Z,101681.91
2022-08-05T12:31:54.677Z,101690.13
2022-08-05T12:34:32.749Z,101677.50
2022-08-05T12:37:10.693Z,101687.00
2022-08-05T12:39:39.893Z,101677.50
2022-08-05T12:42:16.054Z,101703.06
2022-08-05T12:44:46.003Z,101701.59
2022-08-05T12:47:31.020Z,101699.97
2022-08-05T12:50:04.782Z,101704.75
2022-08-05T12:52:42.448Z,101700.75
2022-08-05T12:55:22.075Z,101726.88
2022-08-05T12:58:48.634Z,101724.81
2022-08-05T13:02:04.164Z,101720.44
2022-08-05T13:03:41.354Z,101725.53
2022-08-05T13:06:17.719Z,101731.38
2022-08-05T13:08:52.283Z,101739.53
2022-08-05T13:12:03.134Z,101722.81
2022-08-05T13:14:36.677Z,101743.94
2022-08-05T13:17:16.448Z,101746.59
2022-08-05T13:20:11.491Z,101759.34
2022-08-05T13:22:43.363Z,101771.91
2022-08-05T13:25:19.231Z,101792.41
2022-08-05T13:27:56.168Z,101762.84
2022-08-05T13:30:34.254Z,101798.50
2022-08-05T13:33:02.617Z,101776.91
2022-08-05T13:35:42.957Z,101807.53
2022-08-05T13:38:28.160Z,101789.72
2022-08-05T13:41:00.520Z,101811.56
2022-08-05T13:43:43.962Z,101807.16
2022-08-05T13:46:16.185Z,101798.97
2022-08-05T13:48:58.389Z,101796.44
2022-08-05T13:51:40.193Z,101799.97
2022-08-05T13:54:13.676Z,101786.31
2022-08-05T13:56:51.656Z,101799.97
2022-08-05T13:59:24.840Z,101801.13
2022-08-05T14:01:57.968Z,101799.63
2022-08-05T14:04:55.616Z,101804.84
2022-08-05T14:08:00.907Z,101805.63
2022-08-05T14:10:28.696Z,101790.59
2022-08-05T14:12:59.755Z,101797.28
2022-08-05T14:16:07.758Z,101790.16
2022-08-05T14:18:18.291Z,101784.03
2022-08-05T14:20:54.419Z,101782.19
2022-08-05T14:23:26.047Z,101775.41
2022-08-05T14:25:58.490Z,101783.69
2022-08-05T14:28:28.806Z,101790.72
2022-08-05T14:30:58.300Z,101788.94
2022-08-05T14:33:25.872Z,101788.16
2022-08-05T14:35:54.504Z,101771.25
2022-08-05T14:38:32.788Z,101777.38
2022-08-05T14:41:07.640Z,101784.31
2022-08-05T14:44:02.107Z,101787.00
2022-08-05T14:46:28.741Z,101781.66
2022-08-05T14:49:06.235Z,101779.06
2022-08-05T14:51:39.010Z,101773.41
2022-08-05T14:54:28.255Z,101764.09
2022-08-05T14:56:59.492Z,101753.03
2022-08-05T14:59:29.364Z,101780.00
2022-08-05T15:01:58.323Z,101777.78
2022-08-05T15:04:28.983Z,101800.28
2022-08-05T15:06:56.630Z,101807.06
2022-08-05T15:09:52.750Z,101802.97
2022-08-05T15:12:16.714Z,101800.44
2022-08-05T15:14:50.274Z,101818.00
2022-08-05T15:17:47.303Z,101808.28
2022-08-05T15:20:15.537Z,101806.06
2022-08-05T15:22:54.410Z,101811.38
2022-08-05T15:25:41.103Z,101809.53
2022-08-05T15:28:15.644Z,101817.22
2022-08-05T15:30:46.238Z,101820.50
2022-08-05T15:33:56.734Z,101813.38
2022-08-05T15:36:06.070Z,101817.16
2022-08-05T15:38:44.806Z,101838.44
2022-08-05T15:41:21.998Z,101826.81
2022-08-05T15:43:54.901Z,101840.84
2022-08-05T15:46:24.465Z,101841.88
2022-08-05T15:48:58.750Z,101840.31
2022-08-05T15:52:13.717Z,101864.16
2022-08-05T15:54:17.577Z,101849.19
2022-08-05T15:56:44.738Z,101857.94
2022-08-05T15:59:21.774Z,101849.91
2022-08-05T16:01:52.526Z,101835.88
2022-08-05T16:04:25.655Z,101850.28
2022-08-05T16:06:55.607Z,101836.16
2022-08-05T16:09:25.197Z,101851.00
2022-08-05T16:11:54.166Z,101859.53
2022-08-05T16:14:22.974Z,101868.69
2022-08-05T16:16:50.596Z,101863.72
2022-08-05T16:19:25.270Z,101858.22
2022-08-05T16:22:10.459Z,101861.72
2022-08-05T16:24:41.145Z,101853.72
2022-08-05T16:27:18.470Z,101854.75
2022-08-05T16:29:50.752Z,101858.03
2022-08-05T16:32:23.386Z,101856.53
2022-08-05T16:34:55.738Z,101863.25
2022-08-05T16:38:15.172Z,101842.25
2022-08-05T16:40:24.717Z,101836.81
2022-08-05T16:42:53.952Z,101850.06
2022-08-05T16:46:05.101Z,101850.06
2022-08-05T16:48:10.377Z,101838.53
2022-08-05T16:50:37.901Z,101840.09
2022-08-05T16:53:12.583Z,101853.38
2022-08-05T16:55:49.897Z,101851.66
2022-08-05T16:58:19.753Z,101854.38
2022-08-05T17:00:48.210Z,101852.63
2022-08-05T17:03:20.548Z,101856.09
2022-08-05T17:05:53.717Z,101855.97
2022-08-05T17:08:36.176Z,101858.44
2022-08-05T17:11:12.759Z,101860.25
2022-08-05T17:13:46.249Z,101860.81
2022-08-05T17:16:33.667Z,101868.47
2022-08-05T17:19:01.517Z,101867.66
2022-08-05T17:21:36.217Z,101875.84
2022-08-05T17:24:30.327Z,101861.13
2022-08-05T17:26:58.201Z,101882.09
2022-08-05T17:29:33.268Z,101886.34
2022-08-05T17:32:11.346Z,101879.06
2022-08-05T17:34:47.918Z,101878.22
2022-08-05T17:37:39.755Z,101884.03
2022-08-05T17:40:12.276Z,101875.19
2022-08-05T17:42:51.369Z,101886.00
2022-08-05T17:45:24.877Z,101885.41
2022-08-05T17:47:55.975Z,101886.81
2022-08-05T17:50:30.319Z,101887.97
2022-08-05T17:53:05.378Z,101886.38
2022-08-05T17:55:37.768Z,101897.91
2022-08-05T17:58:13.637Z,101899.69
2022-08-05T18:00:47.732Z,101889.31
2022-08-05T18:06:12.286Z,101899.44
2022-08-05T18:08:45.796Z,101896.03
2022-08-05T18:11:24.165Z,101907.78
2022-08-05T18:14:03.379Z,101896.75
2022-08-05T18:16:32.647Z,101902.06
2022-08-05T18:19:00.719Z,101907.47
2022-08-05T18:22:07.850Z,101905.94
2022-08-05T18:24:16.055Z,101897.47
2022-08-05T18:26:43.800Z,101917.84
2022-08-05T18:29:11.654Z,101911.91
2022-08-05T18:31:42.900Z,101920.00
2022-08-05T18:34:12.638Z,101915.69
2022-08-05T18:36:41.267Z,101913.22
2022-08-05T18:39:42.293Z,101922.00
2022-08-05T18:42:06.367Z,101922.28
2022-08-05T18:44:49.209Z,101927.59
2022-08-05T18:47:26.469Z,101927.50
2022-08-05T18:50:15.421Z,101921.47
2022-08-05T18:52:50.887Z,101930.25
2022-08-05T18:55:21.492Z,101911.19
2022-08-05T18:57:52.756Z,101928.53
2022-08-05T19:00:28.432Z,101919.78
2022-08-05T19:03:03.976Z,101926.78
2022-08-05T19:06:12.226Z,101934.78
2022-08-05T19:08:20.183Z,101933.97
2022-08-05T19:10:50.186Z,101938.38
2022-08-05T19:13:19.757Z,101934.91
2022-08-05T19:15:59.109Z,101941.91
2022-08-05T19:18:30.890Z,101937.56
2022-08-05T19:20:59.668Z,101930.75
2022-08-05T19:24:07.210Z,101937.94
2022-08-05T19:26:16.524Z,101936.44
2022-08-05T19:28:44.051Z,101962.09
2022-08-05T19:31:15.034Z,101953.34
2022-08-05T19:33:48.435Z,101956.13
2022-08-05T19:36:25.213Z,101951.88
2022-08-05T19:38:55.169Z,101959.84
2022-08-05T19:41:58.278Z,101963.50
2022-08-05T19:44:18.810Z,101965.41
2022-08-05T19:46:47.030Z,101957.63
2022-08-05T19:49:24.932Z,101949.94
2022-08-05T19:52:05.040Z,101946.63
2022-08-05T19:54:37.250Z,101926.97
2022-08-05T19:57:09.270Z,101966.03
2022-08-05T19:59:56.225Z,101974.00
2022-08-05T20:02:30.364Z,101965.19
2022-08-05T20:04:59.823Z,101971.38
2022-08-05T20:07:46.887Z,101974.97
2022-08-05T20:10:19.380Z,101991.81
2022-08-05T20:12:49.589Z,101943.47
2022-08-05T20:15:48.972Z,102000.31
2022-08-05T20:18:10.723Z,102009.97
2022-08-05T20:20:57.051Z,102013.53
2022-08-05T20:23:39.431Z,102018.94
2022-08-05T20:26:15.944Z,102000.66
2022-08-05T20:28:50.360Z,102008.75
2022-08-05T20:31:21.567Z,101992.72
2022-08-05T20:33:51.211Z,102030.44
2022-08-05T20:36:19.850Z,102020.00
2022-08-05T20:38:53.779Z,102024.53
2022-08-05T20:41:43.859Z,102032.75
2022-08-05T20:44:17.102Z,102040.59
2022-08-05T20:46:48.093Z,102044.28
2022-08-05T20:49:18.442Z,102039.34
2022-08-05T20:51:53.669Z,102039.50
2022-08-05T20:54:25.890Z,102043.06
2022-08-05T20:57:11.177Z,102048.47
2022-08-05T20:59:46.219Z,102052.91
2022-08-05T21:02:29.664Z,102055.72
2022-08-05T21:04:56.804Z,102053.13
2022-08-05T21:07:24.814Z,102054.13
2022-08-05T21:10:13.845Z,102063.84
2022-08-05T21:12:41.123Z,102060.31
2022-08-05T21:15:25.865Z,102052.75
2022-08-05T21:18:02.247Z,102079.31
2022-08-05T21:20:32.817Z,102071.38
2022-08-05T21:23:01.494Z,102085.53
2022-08-05T21:25:33.922Z,102078.53
2022-08-05T21:28:03.235Z,102088.59
2022-08-05T21:30:31.659Z,102080.22
2022-08-05T21:32:59.750Z,102092.66
2022-08-05T21:35:55.428Z,102091.16
2022-08-05T21:38:18.996Z,102092.28
2022-08-05T21:40:46.153Z,102107.81
2022-08-05T21:43:24.339Z,102111.41
2022-08-05T21:45:57.390Z,102106.31
2022-08-05T21:48:25.245Z,102116.91
2022-08-05T21:50:54.521Z,102119.63
2022-08-05T21:53:27.286Z,102114.41
2022-08-05T21:56:05.517Z,102118.69
2022-08-05T21:58:42.117Z,102121.38
2022-08-05T22:01:10.653Z,102114.34
2022-08-05T22:03:52.494Z,102117.84
2022-08-05T22:06:33.550Z,102132.03
2022-08-05T22:09:15.145Z,102124.16
2022-08-05T22:11:48.038Z,102128.44
2022-08-05T22:14:34.343Z,102134.66
2022-08-05T22:17:07.194Z,102125.97
2022-08-05T22:20:01.888Z,102133.00
2022-08-05T22:22:27.945Z,102128.63
2022-08-05T22:25:18.049Z,102131.50
2022-08-05T22:28:11.130Z,102123.03
2022-08-05T22:30:44.250Z,102135.59
2022-08-05T22:33:55.716Z,102134.84
2022-08-05T22:36:15.160Z,102142.75
2022-08-05T22:38:48.185Z,102138.28
2022-08-05T22:41:26.369Z,102146.25
2022-08-05T22:44:07.931Z,102146.38
2022-08-05T22:46:39.750Z,102137.03
2022-08-05T22:49:12.494Z,102155.41
2022-08-05T22:52:05.693Z,102163.38
2022-08-05T22:54:36.581Z,102163.38
2022-08-05T22:57:06.035Z,102154.75
2022-08-05T22:59:48.596Z,102152.84
2022-08-05T23:02:29.765Z,102166.94
2022-08-05T23:05:01.879Z,102165.25
2022-08-05T23:07:45.203Z,102163.72
2022-08-05T23:10:20.274Z,102173.44
2022-08-05T23:12:51.215Z,102185.81
2022-08-05T23:15:18.851Z,102186.63
2022-08-05T23:18:00.409Z,102184.00
2022-08-05T23:20:37.056Z,102176.16
2022-08-05T23:23:08.405Z,102187.41
2022-08-05T23:25:53.470Z,102188.25
2022-08-05T23:28:28.699Z,102207.81
2022-08-05T23:31:03.731Z,102203.41
2022-08-05T23:34:03.048Z,102202.38
2022-08-05T23:36:38.525Z,102213.75
2022-08-05T23:39:07.806Z,102217.22
2022-08-05T23:41:40.957Z,102216.28
2022-08-05T23:44:16.697Z,102215.50
2022-08-05T23:46:44.280Z,102218.19
2022-08-05T23:49:16.506Z,102223.50
2022-08-05T23:52:03.280Z,102221.81
2022-08-05T23:54:38.047Z,102231.53
2022-08-05T23:57:07.688Z,102230.59
